sensor_id;sensor_type;location;lat;lon;timestamp;temperature;humidity
29713;DHT22;16623;53.632;10.016;2022-12-24T00:02:00;4.60;99.90
29713;DHT22;16623;53.632;10.016;2022-12-24T00:04:26;4.60;99.90
29713;DHT22;16623;53.632;10.016;2022-12-24T00:06:51;4.60;99.90
29713;DHT22;16623;53.632;10.016;2022-12-24T00:09:17;4.60;99.90
29713;DHT22;16623;53.632;10.016;2022-12-24T00:11:42;4.70;99.90
29713;DHT22;16623;53.632;10.016;2022-12-24T00:14:08;4.60;99.90
29713;DHT22;16623;53.632;10.016;2022-12-24T00:16:34;4.60;99.90
29713;DHT22;16623;53.632;10.016;2022-12-24T00:19:00;4.60;99.90
29713;DHT22;16623;53.632;10.016;2022-12-24T00:21:25;4.60;99.90
29713;DHT22;16623;53.632;10.016;2022-12-24T00:23:51;4.60;99.90
29713;DHT22;16623;53.632;10.016;2022-12-24T00:26:17;4.60;99.90
29713;DHT22;16623;53.632;10.016;2022-12-24T00:28:44;4.60;99.90
29713;DHT22;16623;53.632;10.016;2022-12-24T00:31:15;4.60;99.90
29713;DHT22;16623;53.632;10.016;2022-12-24T00:33:41;4.60;99.90
29713;DHT22;16623;53.632;10.016;2022-12-24T00:36:07;4.60;99.90
29713;DHT22;16623;53.632;10.016;2022-12-24T00:38:33;4.60;99.90
29713;DHT22;16623;53.632;10.016;2022-12-24T00:40:59;4.60;99.90
29713;DHT22;16623;53.632;10.016;2022-12-24T00:43:26;4.60;99.90
29713;DHT22;16623;53.632;10.016;2022-12-24T00:45:52;4.60;99.90
29713;DHT22;16623;53.632;10.016;2022-12-24T00:48:18;4.60;99.90
29713;DHT22;16623;53.632;10.016;2022-12-24T00:50:44;4.60;99.90
29713;DHT22;16623;53.632;10.016;2022-12-24T00:53:09;4.60;99.90
29713;DHT22;16623;53.632;10.016;2022-12-24T00:55:35;4.70;99.90
29713;DHT22;16623;53.632;10.016;2022-12-24T00:58:01;4.70;99.90
29713;DHT22;16623;53.632;10.016;2022-12-24T01:00:26;4.60;99.90
29713;DHT22;16623;53.632;10.016;2022-12-24T01:02:52;4.60;99.90
29713;DHT22;16623;53.632;10.016;2022-12-24T01:05:18;4.60;99.90
29713;DHT22;16623;53.632;10.016;2022-12-24T01:07:46;4.60;99.90
29713;DHT22;16623;53.632;10.016;2022-12-24T01:10:16;4.70;99.90
29713;DHT22;16623;53.632;10.016;2022-12-24T01:12:42;4.70;99.90
29713;DHT22;16623;53.632;10.016;2022-12-24T01:15:09;4.70;99.90
29713;DHT22;16623;53.632;10.016;2022-12-24T01:17:35;4.70;99.90
29713;DHT22;16623;53.632;10.016;2022-12-24T01:20:02;4.70;99.90
29713;DHT22;16623;53.632;10.016;2022-12-24T01:22:28;4.70;99.90
29713;DHT22;16623;53.632;10.016;2022-12-24T01:24:54;4.70;99.90
29713;DHT22;16623;53.632;10.016;2022-12-24T01:27:20;4.80;99.90
29713;DHT22;16623;53.632;10.016;2022-12-24T01:29:45;4.80;99.90
29713;DHT22;16623;53.632;10.016;2022-12-24T01:32:11;4.80;99.90
29713;DHT22;16623;53.632;10.016;2022-12-24T01:34:37;4.80;99.90
29713;DHT22;16623;53.632;10.016;2022-12-24T01:37:02;4.80;99.90
29713;DHT22;16623;53.632;10.016;2022-12-24T01:39:28;4.80;99.90
29713;DHT22;16623;53.632;10.016;2022-12-24T01:41:54;4.90;99.90
29713;DHT22;16623;53.632;10.016;2022-12-24T01:44:44;4.80;99.90
29713;DHT22;16623;53.632;10.016;2022-12-24T01:47:16;4.80;99.90
29713;DHT22;16623;53.632;10.016;2022-12-24T01:49:52;4.80;99.90
29713;DHT22;16623;53.632;10.016;2022-12-24T01:52:27;4.80;99.90
29713;DHT22;16623;53.632;10.016;2022-12-24T01:54:57;4.80;99.90
29713;DHT22;16623;53.632;10.016;2022-12-24T01:57:33;4.80;99.90
29713;DHT22;16623;53.632;10.016;2022-12-24T02:00:06;4.80;99.90
29713;DHT22;16623;53.632;10.016;2022-12-24T02:02:32;4.80;99.90
29713;DHT22;16623;53.632;10.016;2022-12-24T02:05:14;4.80;99.90
29713;DHT22;16623;53.632;10.016;2022-12-24T02:07:42;4.80;99.90
29713;DHT22;16623;53.632;10.016;2022-12-24T02:10:09;4.80;99.90
29713;DHT22;16623;53.632;10.016;2022-12-24T02:12:37;4.80;99.90
29713;DHT22;16623;53.632;10.016;2022-12-24T02:15:06;4.80;99.90
29713;DHT22;16623;53.632;10.016;2022-12-24T02:20:41;4.80;99.90
29713;DHT22;16623;53.632;10.016;2022-12-24T02:23:37;4.80;99.90
29713;DHT22;16623;53.632;10.016;2022-12-24T02:32:03;4.80;99.90
29713;DHT22;16623;53.632;10.016;2022-12-24T02:34:46;4.80;99.90
29713;DHT22;16623;53.632;10.016;2022-12-24T02:37:25;4.80;99.90
29713;DHT22;16623;53.632;10.016;2022-12-24T02:39:59;4.80;99.90
29713;DHT22;16623;53.632;10.016;2022-12-24T02:42:30;4.80;99.90
29713;DHT22;16623;53.632;10.016;2022-12-24T02:45:06;4.80;99.90
29713;DHT22;16623;53.632;10.016;2022-12-24T02:47:33;4.80;99.90
29713;DHT22;16623;53.632;10.016;2022-12-24T02:50:04;4.80;99.90
29713;DHT22;16623;53.632;10.016;2022-12-24T02:52:37;4.80;99.90
29713;DHT22;16623;53.632;10.016;2022-12-24T02:57:59;4.80;99.90
29713;DHT22;16623;53.632;10.016;2022-12-24T03:00:26;4.80;99.90
29713;DHT22;16623;53.632;10.016;2022-12-24T03:03:11;4.70;99.90
29713;DHT22;16623;53.632;10.016;2022-12-24T03:05:41;4.80;99.90
29713;DHT22;16623;53.632;10.016;2022-12-24T03:08:15;4.80;99.90
29713;DHT22;16623;53.632;10.016;2022-12-24T03:11:27;4.70;99.90
29713;DHT22;16623;53.632;10.016;2022-12-24T03:13:47;4.70;99.90
29713;DHT22;16623;53.632;10.016;2022-12-24T03:16:16;4.80;99.90
29713;DHT22;16623;53.632;10.016;2022-12-24T03:18:45;4.80;99.90
29713;DHT22;16623;53.632;10.016;2022-12-24T03:21:22;4.80;99.90
29713;DHT22;16623;53.632;10.016;2022-12-24T03:23:48;4.80;99.90
29713;DHT22;16623;53.632;10.016;2022-12-24T03:26:16;4.80;99.90
29713;DHT22;16623;53.632;10.016;2022-12-24T03:28:43;4.80;99.90
29713;DHT22;16623;53.632;10.016;2022-12-24T03:31:09;4.80;99.90
29713;DHT22;16623;53.632;10.016;2022-12-24T03:33:35;4.80;99.90
29713;DHT22;16623;53.632;10.016;2022-12-24T03:36:01;4.80;99.90
29713;DHT22;16623;53.632;10.016;2022-12-24T03:38:27;4.80;99.90
29713;DHT22;16623;53.632;10.016;2022-12-24T03:40:53;4.80;99.90
29713;DHT22;16623;53.632;10.016;2022-12-24T03:43:18;4.70;99.90
29713;DHT22;16623;53.632;10.016;2022-12-24T03:45:44;4.70;99.90
29713;DHT22;16623;53.632;10.016;2022-12-24T03:48:10;4.80;99.90
29713;DHT22;16623;53.632;10.016;2022-12-24T03:50:35;4.80;99.90
29713;DHT22;16623;53.632;10.016;2022-12-24T03:53:01;4.70;99.90
29713;DHT22;16623;53.632;10.016;2022-12-24T03:55:27;4.70;99.90
29713;DHT22;16623;53.632;10.016;2022-12-24T03:57:52;4.70;99.90
29713;DHT22;16623;53.632;10.016;2022-12-24T04:00:18;4.70;99.90
29713;DHT22;16623;53.632;10.016;2022-12-24T04:02:44;4.70;99.90
29713;DHT22;16623;53.632;10.016;2022-12-24T04:05:16;4.70;99.90
29713;DHT22;16623;53.632;10.016;2022-12-24T04:07:42;4.70;99.90
29713;DHT22;16623;53.632;10.016;2022-12-24T04:10:08;4.70;99.90
29713;DHT22;16623;53.632;10.016;2022-12-24T04:12:35;4.70;99.90
29713;DHT22;16623;53.632;10.016;2022-12-24T04:15:01;4.70;99.90
29713;DHT22;16623;53.632;10.016;2022-12-24T04:17:26;4.70;99.90
29713;DHT22;16623;53.632;10.016;2022-12-24T04:19:52;4.70;99.90
29713;DHT22;16623;53.632;10.016;2022-12-24T04:22:18;4.70;99.90
29713;DHT22;16623;53.632;10.016;2022-12-24T04:24:43;4.70;99.90
29713;DHT22;16623;53.632;10.016;2022-12-24T04:27:09;4.70;99.90
29713;DHT22;16623;53.632;10.016;2022-12-24T04:29:35;4.70;99.90
29713;DHT22;16623;53.632;10.016;2022-12-24T04:32:01;4.70;99.90
29713;DHT22;16623;53.632;10.016;2022-12-24T04:34:27;4.80;99.90
29713;DHT22;16623;53.632;10.016;2022-12-24T04:36:52;4.70;99.90
29713;DHT22;16623;53.632;10.016;2022-12-24T04:39:18;4.70;99.90
29713;DHT22;16623;53.632;10.016;2022-12-24T04:41:43;4.70;99.90
29713;DHT22;16623;53.632;10.016;2022-12-24T04:44:09;4.60;99.90
29713;DHT22;16623;53.632;10.016;2022-12-24T04:46:35;4.70;99.90
29713;DHT22;16623;53.632;10.016;2022-12-24T04:49:01;4.80;99.90
29713;DHT22;16623;53.632;10.016;2022-12-24T04:51:27;4.70;99.90
29713;DHT22;16623;53.632;10.016;2022-12-24T04:53:54;4.70;99.90
29713;DHT22;16623;53.632;10.016;2022-12-24T04:56:23;4.70;99.90
29713;DHT22;16623;53.632;10.016;2022-12-24T04:58:49;4.70;99.90
29713;DHT22;16623;53.632;10.016;2022-12-24T05:01:20;4.70;99.90
29713;DHT22;16623;53.632;10.016;2022-12-24T05:03:47;4.70;99.90
29713;DHT22;16623;53.632;10.016;2022-12-24T05:06:15;4.70;99.90
29713;DHT22;16623;53.632;10.016;2022-12-24T05:08:41;4.70;99.90
29713;DHT22;16623;53.632;10.016;2022-12-24T05:11:08;4.70;99.90
29713;DHT22;16623;53.632;10.016;2022-12-24T05:13:35;4.70;99.90
29713;DHT22;16623;53.632;10.016;2022-12-24T05:16:01;4.70;99.90
29713;DHT22;16623;53.632;10.016;2022-12-24T05:18:26;4.80;99.90
29713;DHT22;16623;53.632;10.016;2022-12-24T05:20:52;4.70;99.90
29713;DHT22;16623;53.632;10.016;2022-12-24T05:23:20;4.70;99.90
29713;DHT22;16623;53.632;10.016;2022-12-24T05:26:14;4.70;99.90
29713;DHT22;16623;53.632;10.016;2022-12-24T05:28:50;4.70;99.90
29713;DHT22;16623;53.632;10.016;2022-12-24T05:31:16;4.80;99.90
29713;DHT22;16623;53.632;10.016;2022-12-24T05:33:42;4.70;99.90
29713;DHT22;16623;53.632;10.016;2022-12-24T05:36:08;4.70;99.90
29713;DHT22;16623;53.632;10.016;2022-12-24T05:38:34;4.70;99.90
29713;DHT22;16623;53.632;10.016;2022-12-24T05:41:00;4.70;99.90
29713;DHT22;16623;53.632;10.016;2022-12-24T05:43:26;4.70;99.90
29713;DHT22;16623;53.632;10.016;2022-12-24T05:46:00;4.80;99.90
29713;DHT22;16623;53.632;10.016;2022-12-24T05:48:25;4.80;99.90
29713;DHT22;16623;53.632;10.016;2022-12-24T05:50:52;4.80;99.90
29713;DHT22;16623;53.632;10.016;2022-12-24T05:53:17;4.80;99.90
29713;DHT22;16623;53.632;10.016;2022-12-24T05:55:43;4.80;99.90
29713;DHT22;16623;53.632;10.016;2022-12-24T05:58:09;4.80;99.90
29713;DHT22;16623;53.632;10.016;2022-12-24T06:00:34;4.80;99.90
29713;DHT22;16623;53.632;10.016;2022-12-24T06:03:00;4.90;99.90
29713;DHT22;16623;53.632;10.016;2022-12-24T06:05:26;4.80;99.90
29713;DHT22;16623;53.632;10.016;2022-12-24T06:07:51;4.80;99.90
29713;DHT22;16623;53.632;10.016;2022-12-24T06:10:17;4.80;99.90
29713;DHT22;16623;53.632;10.016;2022-12-24T06:12:44;4.80;99.90
29713;DHT22;16623;53.632;10.016;2022-12-24T06:15:09;4.80;99.90
29713;DHT22;16623;53.632;10.016;2022-12-24T06:17:35;4.80;99.90
29713;DHT22;16623;53.632;10.016;2022-12-24T06:20:01;4.80;99.90
29713;DHT22;16623;53.632;10.016;2022-12-24T06:22:27;4.80;99.90
29713;DHT22;16623;53.632;10.016;2022-12-24T06:24:52;4.80;99.90
29713;DHT22;16623;53.632;10.016;2022-12-24T06:27:18;4.80;99.90
29713;DHT22;16623;53.632;10.016;2022-12-24T06:29:44;4.80;99.90
29713;DHT22;16623;53.632;10.016;2022-12-24T06:32:09;4.80;99.90
29713;DHT22;16623;53.632;10.016;2022-12-24T06:34:35;4.80;99.90
29713;DHT22;16623;53.632;10.016;2022-12-24T06:37:01;4.80;99.90
29713;DHT22;16623;53.632;10.016;2022-12-24T06:39:27;4.90;99.90
29713;DHT22;16623;53.632;10.016;2022-12-24T06:41:52;4.80;99.90
29713;DHT22;16623;53.632;10.016;2022-12-24T06:44:18;4.80;99.90
29713;DHT22;16623;53.632;10.016;2022-12-24T06:46:44;4.80;99.90
29713;DHT22;16623;53.632;10.016;2022-12-24T06:49:09;4.80;99.90
29713;DHT22;16623;53.632;10.016;2022-12-24T06:51:35;4.80;99.90
29713;DHT22;16623;53.632;10.016;2022-12-24T06:54:01;4.80;99.90
29713;DHT22;16623;53.632;10.016;2022-12-24T06:56:26;4.80;99.90
29713;DHT22;16623;53.632;10.016;2022-12-24T06:58:52;4.80;99.90
29713;DHT22;16623;53.632;10.016;2022-12-24T07:01:19;4.80;99.90
29713;DHT22;16623;53.632;10.016;2022-12-24T07:03:45;4.80;99.90
29713;DHT22;16623;53.632;10.016;2022-12-24T07:06:18;4.80;99.90
29713;DHT22;16623;53.632;10.016;2022-12-24T07:08:45;4.70;99.90
29713;DHT22;16623;53.632;10.016;2022-12-24T07:11:11;4.80;99.90
29713;DHT22;16623;53.632;10.016;2022-12-24T07:13:37;4.70;99.90
29713;DHT22;16623;53.632;10.016;2022-12-24T07:16:03;4.70;99.90
29713;DHT22;16623;53.632;10.016;2022-12-24T07:18:30;4.80;99.90
29713;DHT22;16623;53.632;10.016;2022-12-24T07:20:56;4.80;99.90
29713;DHT22;16623;53.632;10.016;2022-12-24T07:23:22;4.80;99.90
29713;DHT22;16623;53.632;10.016;2022-12-24T07:25:48;4.80;99.90
29713;DHT22;16623;53.632;10.016;2022-12-24T07:28:13;4.80;99.90
29713;DHT22;16623;53.632;10.016;2022-12-24T07:30:39;5.30;99.90
29713;DHT22;16623;53.632;10.016;2022-12-24T07:33:05;4.80;99.90
29713;DHT22;16623;53.632;10.016;2022-12-24T07:35:31;4.80;99.90
29713;DHT22;16623;53.632;10.016;2022-12-24T07:37:56;4.80;99.90
29713;DHT22;16623;53.632;10.016;2022-12-24T07:40:22;4.80;99.90
29713;DHT22;16623;53.632;10.016;2022-12-24T07:42:47;4.90;99.90
29713;DHT22;16623;53.632;10.016;2022-12-24T07:45:13;4.90;99.90
29713;DHT22;16623;53.632;10.016;2022-12-24T07:47:39;4.90;99.90
29713;DHT22;16623;53.632;10.016;2022-12-24T07:50:05;4.90;99.90
29713;DHT22;16623;53.632;10.016;2022-12-24T07:52:31;4.80;99.90
29713;DHT22;16623;53.632;10.016;2022-12-24T07:54:56;4.80;99.90
29713;DHT22;16623;53.632;10.016;2022-12-24T07:57:22;4.80;99.90
29713;DHT22;16623;53.632;10.016;2022-12-24T07:59:48;4.80;99.90
29713;DHT22;16623;53.632;10.016;2022-12-24T23:02:13;6.70;99.90
29713;DHT22;16623;53.632;10.016;2022-12-24T23:04:39;6.70;99.90
29713;DHT22;16623;53.632;10.016;2022-12-24T23:07:12;6.70;99.90
29713;DHT22;16623;53.632;10.016;2022-12-24T23:09:38;6.70;99.90
29713;DHT22;16623;53.632;10.016;2022-12-24T23:12:04;6.60;99.90
29713;DHT22;16623;53.632;10.016;2022-12-24T23:14:30;6.70;99.90
29713;DHT22;16623;53.632;10.016;2022-12-24T23:17:14;6.70;99.90
29713;DHT22;16623;53.632;10.016;2022-12-24T23:19:40;6.70;99.90
29713;DHT22;16623;53.632;10.016;2022-12-24T23:22:06;6.80;99.90
29713;DHT22;16623;53.632;10.016;2022-12-24T23:24:33;6.80;99.90
29713;DHT22;16623;53.632;10.016;2022-12-24T23:26:59;7.00;99.90
29713;DHT22;16623;53.632;10.016;2022-12-24T23:29:29;6.90;99.90
29713;DHT22;16623;53.632;10.016;2022-12-24T23:31:55;6.90;99.90
29713;DHT22;16623;53.632;10.016;2022-12-24T23:34:20;6.90;99.90
29713;DHT22;16623;53.632;10.016;2022-12-24T23:36:46;6.90;99.90
29713;DHT22;16623;53.632;10.016;2022-12-24T23:39:12;6.80;99.90
29713;DHT22;16623;53.632;10.016;2022-12-24T23:41:37;6.90;99.90
29713;DHT22;16623;53.632;10.016;2022-12-24T23:44:03;6.90;99.90
29713;DHT22;16623;53.632;10.016;2022-12-24T23:46:28;6.90;99.90
29713;DHT22;16623;53.632;10.016;2022-12-24T23:48:55;6.90;99.90
29713;DHT22;16623;53.632;10.016;2022-12-24T23:51:24;6.90;99.90
29713;DHT22;16623;53.632;10.016;2022-12-24T23:53:51;6.90;99.90
29713;DHT22;16623;53.632;10.016;2022-12-24T23:56:17;6.80;99.90
29713;DHT22;16623;53.632;10.016;2022-12-24T23:58:43;6.90;99.90
